• Join FlightAware (Why Join?)
  • Login
  • US Flag 
10:34AM EDT


 

Airport Tracker/Info


-or-


 

Live Flight TrackerFlight Track Log ✈ GGN7303 ✈ 02-May-2013 ✈ KBDL - CYUL

Flight Track Log - Related Links

Times and Time Zones

All times are in EDT time to prevent confusion due to time zone crossing. See the GGN7303 flight status page for this flight to view local times or setup timezone preferences in your user account.

Time Position Orientation Groundspeed Altitude Reporting Facility
EDT Latitude Longitude Course Direction KTS MPH feet Rate Location/Type
10:52AM 41.9458 -72.7025 320° Northwest 145 167 1,000  Level Boston Center
10:53AM 41.9831 -72.7444 320° Northwest 178 205 3,000 1,860 Climbing Boston Center
10:54AM 42.0206 -72.7756 328° Northwest 178 205 4,900 1,860 Climbing Boston Center
10:55AM 42.0622 -72.8008 336° Northwest 172 198 6,800 1,980 Climbing Boston Center
10:56AM 42.1081 -72.8292 335° Northwest 167 192 8,900 1,920 Climbing Boston Center
10:57AM 42.1475 -72.8544 335° Northwest 174 200 10,700 1,920 Climbing Boston Center
10:58AM 42.1975 -72.8856 335° Northwest 174 200 12,800 1,860 Climbing Boston Center
10:59AM 42.2389 -72.9139 333° Northwest 179 206 14,500 1,500 Climbing Boston Center
11:01AM 42.2908 -72.9508 332° Northwest 179 206 16,200 1,620 Climbing Boston Center
11:02AM 42.3492 -72.9822 338° Northwest 179 206 18,100 1,260 Climbing Boston Center
11:03AM 42.3989 -73.0025 343° North 179 206 18,800 840 Climbing Boston Center
11:04AM 42.4469 -73.0028 360° North 179 206 19,800 540 Climbing Boston Center
11:05AM 42.5072 -73.0117 354° North 190 219 19,900 60 Climbing Boston Center
11:06AM 42.5697 -73.0294 348° North 215 247 20,000  Climbing Boston Center
11:07AM 42.6342 -73.0553 344° North 229 264 20,000 -60 Level Boston Center
11:08AM 42.6989 -73.0672 352° North 235 270 19,900  Descending Boston Center
11:09AM 42.7633 -73.0819 350° North 235 270 20,000  Climbing Boston Center
11:10AM 42.8300 -73.0969 351° North 235 270 19,900 -60 Descending Boston Center
11:11AM 42.8922 -73.1117 350° North 235 270 19,900  Level Boston Center
11:12AM 42.9569 -73.1239 352° North 235 270 20,000  Climbing Boston Center
11:13AM 43.0236 -73.1386 351° North 235 270 19,900 -60 Descending Boston Center
11:14AM 43.0881 -73.1536 350° North 235 270 19,900  Level Boston Center
11:15AM 43.1525 -73.1686 350° North 240 276 20,000  Climbing Boston Center
11:16AM 43.2169 -73.1836 350° North 240 276 20,000 -60 Level Boston Center
11:17AM 43.2836 -73.1989 351° North 240 276 19,900  Descending Boston Center
11:18AM 43.3481 -73.2139 350° North 240 276 20,000  Climbing Boston Center
11:19AM 43.4167 -73.2289 351° North 234 269 20,000  Level Boston Center
11:20AM 43.4833 -73.2442 351° North 234 269 20,000  Level Boston Center
11:21AM 43.5625 -73.2653 349° North 239 275 20,000 -60 Level Boston Center
11:22AM 43.6269 -73.2806 350° North 239 275 19,900  Descending Boston Center
11:23AM 43.6936 -73.2928 352° North 239 275 20,000  Climbing Boston Center
11:24AM 43.7600 -73.3111 349° North 239 275 20,000  Level Boston Center
11:25AM 43.8267 -73.3236 352° North 239 275 20,000 -60 Level Boston Center
11:26AM 43.8933 -73.3331 354° North 239 275 19,900 -60 Descending Boston Center
11:27AM 43.9556 -73.3514 348° North 239 275 19,900  Level Boston Center
11:28AM 44.0200 -73.3697 348° North 239 275 20,000  Climbing Boston Center
11:29AM 44.0803 -73.3822 352° North 239 275 19,900  Descending Boston Center
11:30AM 44.1469 -73.3978 350° North 239 275 20,000  Climbing Boston Center
11:31AM 44.2133 -73.4161 349° North 239 275 19,900 -60 Descending Boston Center
11:32AM 44.2819 -73.4317 351° North 239 275 19,900  Level Boston Center
11:33AM 44.3486 -73.4475 350° North 239 275 19,900  Level Boston Center
11:34AM 44.4153 -73.4603 352° North 239 275 19,900  Level Boston Center
11:35AM 44.4858 -73.4789 349° North 239 275 19,900 -180 Level Boston Center
11:36AM 44.5544 -73.4947 351° North 239 275 19,600 -900 Descending Boston Center
11:37AM 44.6250 -73.5106 351° North 245 282 18,200 -1,200 Descending Boston Center
11:38AM 44.6978 -73.5264 351° North 255 293 17,300 -1,200 Descending Boston Center
11:39AM 44.7667 -73.5336 356° North 255 293 15,900 -1,260 Descending Boston Center
11:40AM 44.8414 -73.5436 355° North 255 293 14,800 -1,140 Descending Boston Center
11:41AM 44.9000 -73.5333 North 260 299 13,900 -1,200 Descending Montreal Center
11:42AM 44.9667 -73.5500 350° North 270 311 12,600 -1,260 Descending Montreal Center
11:43AM 45.0500 -73.5500 360° North 270 311 11,400 -1,260 Descending Montreal Center
11:44AM 45.1167 -73.5667 350° North 270 311 10,100 -1,440 Descending Montreal Center
11:45AM 45.1667 -73.6333 317° Northwest 280 322 8,600 -1,380 Descending Montreal Center
11:46AM 45.2167 -73.7333 305° West 270 311 7,400 -1,200 Descending Montreal Center
11:47AM 45.2500 -73.8333 295° West 260 299 6,200 -1,680 Descending Montreal Center
11:48AM 45.3000 -73.9000 317° Northwest 230 265 4,100 -1,800 Descending Montreal Center
11:49AM 45.3500 -73.9000 360° North 190 219 2,600 -1,200 Descending Montreal Center
11:50AM 45.3833 -73.8500 46° Northeast 160 184 1,800 -780 Descending Montreal Center
11:51AM 45.4167 -73.8000 46° Northeast 140 161 1,100 -780 Descending Montreal Center
11:52AM 45.4500 -73.7667 35° Northeast 130 150 300 -840 Descending Montreal Center
11:57AM 45.4667 -73.7333 19° North  Level FlightAware Approximate
12:04PM 45.4681 -73.7414 19° North  Level Estimated
12:05PM 45.4667 -73.7333 19° North  Level FlightAware Approximate
12:06PM 45.4681 -73.7414 19° North  Level Estimated